Time;durP1;ratioP1;P1;durP2;ratioP2;P2;SDS_P1;SDS_P2;PMS_P1;PMS_P2;Temp;Humidity;BMP_temperature;BMP_pressure;BME280_temperature;BME280_humidity;BME280_pressure;Samples;Min_cycle;Max_cycle;Signal;HPM_P1;HPM_P2
2022/07/17 00:00:04;;;;;;;4.63;2.10;;;;;;;;;;5094572;28;20066;-77
2022/07/17 00:02:30;;;;;;;3.47;1.77;;;;;;;;;;5094292;28;20044;-78
2022/07/17 00:04:56;;;;;;;5.07;2.10;;;;;;;;;;5095201;28;20480;-78
2022/07/17 00:07:22;;;;;;;3.83;2.22;;;;;;;;;;5093913;28;20075;-78
2022/07/17 00:09:48;;;;;;;4.45;1.90;;;;;;;;;;5086020;28;20116;-77
2022/07/17 00:12:14;;;;;;;6.53;2.03;;;;;;;;;;5088694;28;20035;-78
2022/07/17 00:14:40;;;;;;;6.57;2.17;;;;;;;;;;5094037;28;20050;-77
2022/07/17 00:17:06;;;;;;;5.65;2.40;;;;;;;;;;5094761;28;20507;-77
2022/07/17 00:19:33;;;;;;;4.03;1.75;;;;;;;;;;5094351;28;20365;-77
2022/07/17 00:21:59;;;;;;;4.50;1.83;;;;;;;;;;5094679;28;20439;-77
2022/07/17 00:24:25;;;;;;;5.75;2.00;;;;;;;;;;5093950;28;20083;-77
2022/07/17 00:26:51;;;;;;;4.40;2.00;;;;;;;;;;5094413;28;20055;-77
2022/07/17 00:29:18;;;;;;;4.10;2.05;;;;;;;;;;5079824;28;20145;-78
2022/07/17 00:31:44;;;;;;;5.00;2.00;;;;;;;;;;5077137;28;20051;-78
2022/07/17 00:34:11;;;;;;;4.40;2.17;;;;;;;;;;5112293;28;20131;-78
2022/07/17 00:36:37;;;;;;;5.72;2.50;;;;;;;;;;5093741;28;20044;-77
2022/07/17 00:39:03;;;;;;;5.93;2.33;;;;;;;;;;5094064;28;20042;-77
2022/07/17 00:41:29;;;;;;;5.43;2.40;;;;;;;;;;5094653;28;20046;-77
2022/07/17 00:44:03;;;;;;;7.03;2.15;;;;;;;;;;5098211;28;20043;-77
2022/07/17 00:46:29;;;;;;;6.95;3.25;;;;;;;;;;5097807;28;20129;-77
2022/07/17 00:48:55;;;;;;;7.68;2.22;;;;;;;;;;5098184;28;20109;-77
2022/07/17 00:51:21;;;;;;;5.82;2.47;;;;;;;;;;5097986;28;20036;-77
2022/07/17 00:53:48;;;;;;;5.00;2.50;;;;;;;;;;5097759;28;20067;-77
2022/07/17 00:56:15;;;;;;;4.72;2.50;;;;;;;;;;5089205;28;20036;-77
2022/07/17 00:58:42;;;;;;;6.50;2.25;;;;;;;;;;5080449;28;20040;-77
2022/07/17 01:01:08;;;;;;;6.35;1.77;;;;;;;;;;5097862;28;20043;-77
2022/07/17 01:03:34;;;;;;;6.00;2.80;;;;;;;;;;5097597;28;20051;-77
2022/07/17 01:06:00;;;;;;;4.57;2.10;;;;;;;;;;5097811;28;20032;-77
2022/07/17 01:08:27;;;;;;;5.20;2.03;;;;;;;;;;5097464;28;20063;-77
2022/07/17 01:10:53;;;;;;;8.02;2.13;;;;;;;;;;5097707;28;20080;-77
2022/07/17 01:13:19;;;;;;;5.05;2.33;;;;;;;;;;5115943;28;20039;-77
2022/07/17 01:15:45;;;;;;;4.38;2.20;;;;;;;;;;5097167;28;20071;-77
2022/07/17 01:18:12;;;;;;;5.25;2.55;;;;;;;;;;5098044;28;20539;-77
2022/07/17 01:20:39;;;;;;;4.38;2.40;;;;;;;;;;5097460;28;20510;-77
2022/07/17 01:23:06;;;;;;;8.10;3.35;;;;;;;;;;5097652;28;20075;-77
2022/07/17 01:25:32;;;;;;;5.20;2.90;;;;;;;;;;5096853;28;20065;-77
2022/07/17 01:27:58;;;;;;;6.55;2.90;;;;;;;;;;5097135;28;20032;-77
2022/07/17 01:30:24;;;;;;;6.47;2.72;;;;;;;;;;5097333;28;20039;-77
2022/07/17 01:32:50;;;;;;;6.15;3.20;;;;;;;;;;5096602;28;20047;-77
2022/07/17 01:35:16;;;;;;;6.57;3.13;;;;;;;;;;5097363;28;20039;-77
2022/07/17 01:37:43;;;;;;;5.95;2.90;;;;;;;;;;5096818;28;20043;-77
2022/07/17 01:40:12;;;;;;;6.65;3.10;;;;;;;;;;5097268;28;20085;-77
2022/07/17 01:42:39;;;;;;;7.43;2.70;;;;;;;;;;5097271;28;20055;-77
2022/07/17 01:45:05;;;;;;;5.88;2.88;;;;;;;;;;5092149;28;20598;-77
2022/07/17 01:47:31;;;;;;;6.25;3.30;;;;;;;;;;5076873;28;20043;-77
2022/07/17 01:49:58;;;;;;;6.43;2.75;;;;;;;;;;5096979;28;20084;-77
2022/07/17 01:52:25;;;;;;;10.18;3.20;;;;;;;;;;5079845;28;20043;-77
2022/07/17 01:54:51;;;;;;;6.10;2.05;;;;;;;;;;5079837;28;20046;-77
2022/07/17 01:57:17;;;;;;;5.18;2.40;;;;;;;;;;5115158;28;20118;-77
2022/07/17 01:59:43;;;;;;;3.42;1.83;;;;;;;;;;5063277;28;20495;-77
2022/07/17 02:02:10;;;;;;;5.85;2.80;;;;;;;;;;5095079;28;20052;-77
2022/07/17 02:04:37;;;;;;;6.72;2.78;;;;;;;;;;5081645;28;20074;-77
2022/07/17 02:07:03;;;;;;;2.85;1.50;;;;;;;;;;5095433;28;20071;-77
2022/07/17 02:09:29;;;;;;;4.28;2.45;;;;;;;;;;5096729;28;20065;-77
2022/07/17 02:11:56;;;;;;;2.97;1.63;;;;;;;;;;5095888;28;20344;-77
2022/07/17 02:14:22;;;;;;;2.17;1.23;;;;;;;;;;5096880;28;20507;-77
2022/07/17 02:16:48;;;;;;;6.22;1.90;;;;;;;;;;5096119;28;20388;-77
2022/07/17 02:19:14;;;;;;;4.63;2.70;;;;;;;;;;5096464;28;20096;-77
2022/07/17 02:21:41;;;;;;;8.70;2.88;;;;;;;;;;5096269;28;20043;-78
2022/07/17 02:24:07;;;;;;;5.05;2.97;;;;;;;;;;5095955;28;20035;-77
2022/07/17 02:26:33;;;;;;;5.75;2.92;;;;;;;;;;5062878;28;20069;-77
2022/07/17 02:28:59;;;;;;;4.57;3.60;;;;;;;;;;5096233;28;20062;-77
2022/07/17 02:31:25;;;;;;;7.82;3.30;;;;;;;;;;5096182;28;20155;-77
2022/07/17 02:33:51;;;;;;;6.93;3.83;;;;;;;;;;5092211;28;20478;-77
2022/07/17 02:36:18;;;;;;;6.47;3.65;;;;;;;;;;5076260;28;20055;-77
2022/07/17 02:38:44;;;;;;;8.82;4.30;;;;;;;;;;5081093;28;20067;-77
2022/07/17 02:41:10;;;;;;;7.78;4.13;;;;;;;;;;5075939;28;20052;-77
2022/07/17 02:43:36;;;;;;;6.22;3.40;;;;;;;;;;5076138;28;20488;-77
2022/07/17 02:46:02;;;;;;;7.50;3.88;;;;;;;;;;5078036;28;20119;-77
2022/07/17 02:48:28;;;;;;;7.20;3.90;;;;;;;;;;5075804;28;20124;-77
2022/07/17 02:50:54;;;;;;;6.07;3.65;;;;;;;;;;5075077;28;20048;-77
2022/07/17 02:53:20;;;;;;;5.38;3.42;;;;;;;;;;5087632;28;20503;-77
2022/07/17 02:55:47;;;;;;;7.05;4.07;;;;;;;;;;5052918;28;20076;-77
2022/07/17 02:58:13;;;;;;;6.50;3.88;;;;;;;;;;5075850;28;20071;-77
2022/07/17 03:00:39;;;;;;;6.18;3.58;;;;;;;;;;5075094;28;20102;-77
2022/07/17 03:03:05;;;;;;;6.22;3.17;;;;;;;;;;5077815;28;20040;-77
2022/07/17 03:05:31;;;;;;;5.25;3.00;;;;;;;;;;5085166;28;20177;-77
2022/07/17 03:07:57;;;;;;;4.85;2.83;;;;;;;;;;5058252;28;20047;-77
2022/07/17 03:10:24;;;;;;;6.63;2.80;;;;;;;;;;5075559;28;20117;-77
2022/07/17 03:12:50;;;;;;;6.15;3.10;;;;;;;;;;5093086;28;20089;-77
2022/07/17 03:15:16;;;;;;;4.63;3.10;;;;;;;;;;5077999;28;20548;-77
2022/07/17 03:17:42;;;;;;;4.35;2.85;;;;;;;;;;5082792;28;20128;-77
2022/07/17 03:20:09;;;;;;;4.95;2.80;;;;;;;;;;5089179;28;20040;-77
2022/07/17 03:22:35;;;;;;;5.97;3.28;;;;;;;;;;5082176;28;20044;-77
2022/07/17 03:25:01;;;;;;;6.10;3.63;;;;;;;;;;5091428;28;20052;-77
2022/07/17 03:27:28;;;;;;;5.00;2.97;;;;;;;;;;5086756;28;20036;-76
2022/07/17 03:29:54;;;;;;;5.70;3.00;;;;;;;;;;5085561;28;20040;-77
2022/07/17 03:32:21;;;;;;;5.90;3.42;;;;;;;;;;5090507;28;20058;-77
2022/07/17 03:34:47;;;;;;;7.55;3.60;;;;;;;;;;5094767;28;20051;-76
2022/07/17 03:37:13;;;;;;;9.48;4.45;;;;;;;;;;5094899;28;20035;-76
2022/07/17 03:39:39;;;;;;;7.78;3.75;;;;;;;;;;5094888;28;20043;-77
2022/07/17 03:42:05;;;;;;;5.03;3.42;;;;;;;;;;5094361;28;20086;-77
2022/07/17 03:44:31;;;;;;;6.78;3.80;;;;;;;;;;5095049;28;20047;-77
2022/07/17 03:46:57;;;;;;;7.90;3.55;;;;;;;;;;5077478;28;20040;-77
2022/07/17 03:49:24;;;;;;;6.07;3.30;;;;;;;;;;5095011;28;20494;-77
2022/07/17 03:51:50;;;;;;;6.88;3.38;;;;;;;;;;5094587;28;20071;-77
2022/07/17 03:54:16;;;;;;;5.68;3.38;;;;;;;;;;5078048;28;20477;-77
2022/07/17 03:56:42;;;;;;;6.57;3.90;;;;;;;;;;5095056;28;20043;-77
2022/07/17 03:59:08;;;;;;;7.85;3.92;;;;;;;;;;5094490;28;20078;-77
2022/07/17 04:01:34;;;;;;;8.00;3.80;;;;;;;;;;5076609;28;20119;-77
2022/07/17 04:04:01;;;;;;;8.95;3.47;;;;;;;;;;5101780;28;20075;-77
2022/07/17 04:06:27;;;;;;;8.07;3.80;;;;;;;;;;5090587;28;20043;-77
2022/07/17 04:08:53;;;;;;;6.45;3.88;;;;;;;;;;5094402;28;20040;-77
2022/07/17 04:11:20;;;;;;;6.68;4.07;;;;;;;;;;5094669;28;20487;-77
2022/07/17 04:13:46;;;;;;;8.48;3.97;;;;;;;;;;5094450;28;20039;-77
2022/07/17 04:16:12;;;;;;;6.22;3.85;;;;;;;;;;5076919;28;20043;-77
2022/07/17 04:18:38;;;;;;;6.85;4.00;;;;;;;;;;5077656;28;20066;-77
2022/07/17 04:21:05;;;;;;;7.10;3.75;;;;;;;;;;5093997;28;20043;-77
2022/07/17 04:23:32;;;;;;;8.18;3.85;;;;;;;;;;5094432;28;20515;-77
2022/07/17 04:25:58;;;;;;;7.63;4.28;;;;;;;;;;5093852;28;20052;-77
2022/07/17 04:28:24;;;;;;;7.97;4.07;;;;;;;;;;5112521;28;20480;-77
2022/07/17 04:30:50;;;;;;;6.80;4.10;;;;;;;;;;5094232;28;20381;-77
2022/07/17 04:33:17;;;;;;;7.55;3.85;;;;;;;;;;5094084;28;20568;-77
2022/07/17 04:35:43;;;;;;;6.07;4.20;;;;;;;;;;5094035;28;20071;-77
2022/07/17 04:38:10;;;;;;;6.72;4.03;;;;;;;;;;5093750;28;20047;-77
2022/07/17 04:40:36;;;;;;;5.50;3.83;;;;;;;;;;5094274;28;20066;-77
2022/07/17 04:43:03;;;;;;;8.05;4.13;;;;;;;;;;5093934;28;20044;-77
2022/07/17 04:45:29;;;;;;;6.25;4.10;;;;;;;;;;5094139;28;20048;-78
2022/07/17 04:47:55;;;;;;;9.52;5.28;;;;;;;;;;5093965;28;20032;-78
2022/07/17 04:50:22;;;;;;;6.75;4.70;;;;;;;;;;5112338;28;20126;-77
2022/07/17 04:52:48;;;;;;;6.82;4.50;;;;;;;;;;5093933;28;20053;-77
2022/07/17 04:55:14;;;;;;;8.90;4.85;;;;;;;;;;5093804;28;20031;-77
2022/07/17 04:57:40;;;;;;;10.52;5.05;;;;;;;;;;5112151;28;20047;-77
2022/07/17 05:00:07;;;;;;;8.65;4.82;;;;;;;;;;5077140;28;20039;-77
2022/07/17 05:02:33;;;;;;;9.82;4.45;;;;;;;;;;5094779;28;20459;-78
2022/07/17 05:05:00;;;;;;;9.80;4.60;;;;;;;;;;5112050;28;20518;-78
2022/07/17 05:07:26;;;;;;;9.85;4.68;;;;;;;;;;5094457;28;20194;-78
2022/07/17 05:09:52;;;;;;;8.15;4.35;;;;;;;;;;5094340;28;20042;-78
2022/07/17 05:12:18;;;;;;;9.45;4.70;;;;;;;;;;5077736;28;20495;-78
2022/07/17 05:14:44;;;;;;;8.57;4.15;;;;;;;;;;5094223;28;20484;-78
2022/07/17 05:17:10;;;;;;;10.10;4.60;;;;;;;;;;5094157;28;20054;-78
2022/07/17 05:19:37;;;;;;;8.23;4.00;;;;;;;;;;5094414;28;20049;-78
2022/07/17 05:22:03;;;;;;;7.25;4.07;;;;;;;;;;5094051;28;20036;-78
2022/07/17 05:24:30;;;;;;;8.55;4.47;;;;;;;;;;5060913;28;20047;-78
2022/07/17 05:26:56;;;;;;;6.45;3.53;;;;;;;;;;5093603;28;20058;-78
2022/07/17 05:29:22;;;;;;;6.07;3.38;;;;;;;;;;5080923;28;20031;-78
2022/07/17 05:31:48;;;;;;;7.13;3.40;;;;;;;;;;5097901;28;20039;-78
2022/07/17 05:34:14;;;;;;;10.18;3.65;;;;;;;;;;5094152;28;20520;-83
2022/07/17 05:36:40;;;;;;;8.25;3.28;;;;;;;;;;5077197;28;20044;-83
2022/07/17 05:39:08;;;;;;;7.90;3.20;;;;;;;;;;5094119;28;20032;-83
2022/07/17 05:41:34;;;;;;;7.13;3.25;;;;;;;;;;5094603;28;20055;-83
2022/07/17 05:44:00;;;;;;;7.55;3.03;;;;;;;;;;5094155;28;20404;-83
2022/07/17 05:46:26;;;;;;;6.63;3.25;;;;;;;;;;5077485;28;20120;-83
2022/07/17 05:48:52;;;;;;;8.05;3.40;;;;;;;;;;5077116;28;20036;-83
2022/07/17 05:51:18;;;;;;;9.88;3.35;;;;;;;;;;5093864;28;20090;-84
2022/07/17 05:53:44;;;;;;;6.43;3.00;;;;;;;;;;5094193;28;20365;-83
2022/07/17 05:56:10;;;;;;;7.30;3.13;;;;;;;;;;5077871;28;20081;-84
2022/07/17 05:58:36;;;;;;;10.70;3.10;;;;;;;;;;5094012;28;20044;-83
2022/07/17 06:01:02;;;;;;;8.07;3.10;;;;;;;;;;5079232;28;20492;-83
2022/07/17 06:03:29;;;;;;;7.53;3.13;;;;;;;;;;5076715;28;20050;-83
2022/07/17 06:05:56;;;;;;;7.50;2.95;;;;;;;;;;5093642;28;20040;-83
2022/07/17 06:08:22;;;;;;;5.50;2.30;;;;;;;;;;5093706;28;20040;-84
2022/07/17 06:10:48;;;;;;;4.78;1.85;;;;;;;;;;5093513;28;20135;-85
2022/07/17 06:13:14;;;;;;;8.32;1.73;;;;;;;;;;5093274;28;20042;-86
2022/07/17 06:15:40;;;;;;;4.55;1.92;;;;;;;;;;5093686;28;20487;-85
2022/07/17 06:18:06;;;;;;;5.20;1.50;;;;;;;;;;5092854;28;20036;-86
2022/07/17 06:20:32;;;;;;;3.35;1.38;;;;;;;;;;5093378;28;20104;-85
2022/07/17 06:22:58;;;;;;;4.53;1.25;;;;;;;;;;5094243;28;20493;-87
2022/07/17 06:25:24;;;;;;;8.70;1.48;;;;;;;;;;5093185;28;20058;-87
2022/07/17 06:27:50;;;;;;;4.97;1.50;;;;;;;;;;5076707;28;20097;-87
2022/07/17 06:30:16;;;;;;;4.57;1.23;;;;;;;;;;5092972;28;20043;-84
2022/07/17 06:32:43;;;;;;;5.78;1.23;;;;;;;;;;5096507;28;20051;-81
2022/07/17 06:35:10;;;;;;;7.38;1.42;;;;;;;;;;5081977;28;20058;-81
2022/07/17 06:37:36;;;;;;;5.82;1.30;;;;;;;;;;5096438;28;20079;-82
2022/07/17 06:40:03;;;;;;;5.07;1.30;;;;;;;;;;5095310;28;20043;-82
2022/07/17 06:42:29;;;;;;;5.85;1.20;;;;;;;;;;5096902;28;20385;-82
2022/07/17 06:44:55;;;;;;;4.00;1.17;;;;;;;;;;5096363;28;20131;-81
2022/07/17 06:47:21;;;;;;;7.32;1.00;;;;;;;;;;5095760;28;20039;-82
2022/07/17 06:49:47;;;;;;;6.13;1.10;;;;;;;;;;5096554;28;20373;-82
2022/07/17 06:52:13;;;;;;;6.70;0.98;;;;;;;;;;5095953;28;20119;-82
2022/07/17 06:54:39;;;;;;;2.65;0.77;;;;;;;;;;5075367;28;20041;-82
2022/07/17 06:57:06;;;;;;;3.90;1.00;;;;;;;;;;5096124;28;20109;-83
2022/07/17 06:59:32;;;;;;;4.68;0.85;;;;;;;;;;5092434;28;20055;-84
2022/07/17 07:01:58;;;;;;;5.97;1.00;;;;;;;;;;5096426;28;20126;-83
2022/07/17 07:04:24;;;;;;;5.50;0.98;;;;;;;;;;5095302;28;20047;-82
2022/07/17 07:06:50;;;;;;;3.70;1.00;;;;;;;;;;5078977;28;20048;-83
2022/07/17 07:09:16;;;;;;;5.70;1.10;;;;;;;;;;5095692;28;20035;-83
2022/07/17 07:11:42;;;;;;;3.60;1.00;;;;;;;;;;5063635;28;20031;-80
2022/07/17 07:14:09;;;;;;;5.03;1.08;;;;;;;;;;5095406;28;20156;-82
2022/07/17 07:16:35;;;;;;;5.00;1.00;;;;;;;;;;5095748;28;20043;-81
2022/07/17 07:19:01;;;;;;;4.35;0.80;;;;;;;;;;5095842;28;20055;-80
2022/07/17 07:21:27;;;;;;;3.65;0.90;;;;;;;;;;5095312;28;20394;-80
2022/07/17 07:23:54;;;;;;;4.65;1.00;;;;;;;;;;5078878;28;20468;-81
2022/07/17 07:26:20;;;;;;;5.20;1.30;;;;;;;;;;5078618;28;20419;-80
2022/07/17 07:28:47;;;;;;;4.32;1.00;;;;;;;;;;5095547;28;20568;-80
2022/07/17 07:31:13;;;;;;;5.53;0.88;;;;;;;;;;5095781;28;20122;-81
2022/07/17 07:33:39;;;;;;;3.17;0.80;;;;;;;;;;5091942;28;20112;-80
2022/07/17 07:36:05;;;;;;;6.53;1.20;;;;;;;;;;5092554;28;20050;-81
2022/07/17 07:38:32;;;;;;;3.75;0.80;;;;;;;;;;5074826;28;20123;-81
2022/07/17 07:40:58;;;;;;;6.00;0.90;;;;;;;;;;5075538;28;20040;-85
2022/07/17 07:43:24;;;;;;;5.90;0.90;;;;;;;;;;5091583;28;20123;-79
2022/07/17 07:45:50;;;;;;;3.05;0.85;;;;;;;;;;5091659;28;20103;-80
2022/07/17 07:48:16;;;;;;;2.70;0.75;;;;;;;;;;5091843;28;20119;-80
2022/07/17 07:50:42;;;;;;;4.68;0.93;;;;;;;;;;5091855;28;20488;-80
2022/07/17 07:53:08;;;;;;;2.15;0.80;;;;;;;;;;5091796;28;20044;-80
2022/07/17 07:55:35;;;;;;;3.25;0.68;;;;;;;;;;5091636;28;20389;-80
2022/07/17 07:58:04;;;;;;;3.42;1.00;;;;;;;;;;5074667;28;20036;-80
2022/07/17 08:00:30;;;;;;;6.03;1.10;;;;;;;;;;5091431;28;20044;-80
2022/07/17 08:02:56;;;;;;;4.85;0.80;;;;;;;;;;5091715;28;20456;-80
2022/07/17 08:05:22;;;;;;;4.25;0.95;;;;;;;;;;5074490;28;20040;-80
2022/07/17 08:07:48;;;;;;;3.85;0.90;;;;;;;;;;5076957;28;20074;-79
2022/07/17 08:10:14;;;;;;;4.57;1.10;;;;;;;;;;5091402;28;20047;-80
2022/07/17 08:12:40;;;;;;;3.72;0.80;;;;;;;;;;5091542;28;20044;-80
2022/07/17 08:15:06;;;;;;;7.00;1.02;;;;;;;;;;5077435;28;20485;-80
2022/07/17 08:17:33;;;;;;;3.85;0.90;;;;;;;;;;5091430;28;20040;-80
2022/07/17 08:19:59;;;;;;;5.90;1.17;;;;;;;;;;5091131;28;20043;-81
2022/07/17 08:22:25;;;;;;;3.97;1.17;;;;;;;;;;5091219;28;20036;-80
2022/07/17 08:24:51;;;;;;;4.68;0.90;;;;;;;;;;5074531;28;20040;-81
2022/07/17 08:27:17;;;;;;;2.97;0.80;;;;;;;;;;5090935;28;20094;-80
2022/07/17 08:29:43;;;;;;;5.00;1.10;;;;;;;;;;5091473;28;20040;-83
2022/07/17 08:32:09;;;;;;;6.22;0.80;;;;;;;;;;5092158;28;20040;-79
2022/07/17 08:34:35;;;;;;;3.90;1.00;;;;;;;;;;5094404;28;20126;-80
2022/07/17 08:37:01;;;;;;;3.35;1.10;;;;;;;;;;5094683;28;20477;-80
2022/07/17 08:39:27;;;;;;;3.13;0.88;;;;;;;;;;5094531;28;20100;-80
2022/07/17 08:41:54;;;;;;;3.20;0.80;;;;;;;;;;5094450;28;20047;-80
2022/07/17 08:44:20;;;;;;;5.07;0.90;;;;;;;;;;5077197;28;20087;-80
2022/07/17 08:46:46;;;;;;;3.55;1.02;;;;;;;;;;5077752;28;20043;-80
2022/07/17 08:49:14;;;;;;;6.13;1.10;;;;;;;;;;5094997;28;20502;-81
2022/07/17 08:51:40;;;;;;;2.88;1.00;;;;;;;;;;5094817;28;20463;-79
2022/07/17 08:54:06;;;;;;;3.88;0.82;;;;;;;;;;5094286;28;20036;-79
2022/07/17 08:56:32;;;;;;;3.67;0.80;;;;;;;;;;5077231;28;20047;-81
2022/07/17 08:58:58;;;;;;;4.38;0.85;;;;;;;;;;5078022;28;20602;-80
2022/07/17 09:01:25;;;;;;;2.75;0.88;;;;;;;;;;5093972;28;20039;-80
2022/07/17 09:04:05;;;;;;;2.80;0.90;;;;;;;;;;5097703;28;20048;-80
2022/07/17 09:06:32;;;;;;;3.35;0.85;;;;;;;;;;5080753;28;20044;-79
2022/07/17 09:09:04;;;;;;;4.63;0.90;;;;;;;;;;5098689;28;20488;-79
2022/07/17 09:11:41;;;;;;;5.38;0.90;;;;;;;;;;5081261;28;20034;-79
2022/07/17 09:14:07;;;;;;;8.00;1.30;;;;;;;;;;5098256;28;20032;-79
2022/07/17 09:16:36;;;;;;;4.28;0.90;;;;;;;;;;5097790;28;20044;-82
2022/07/17 09:19:02;;;;;;;4.45;0.90;;;;;;;;;;5098136;28;20043;-81
2022/07/17 09:21:29;;;;;;;4.25;1.05;;;;;;;;;;5081026;28;20434;-80
2022/07/17 09:24:07;;;;;;;3.00;0.90;;;;;;;;;;5081124;28;20047;-79
2022/07/17 09:26:34;;;;;;;3.03;0.90;;;;;;;;;;5097378;28;20044;-80
2022/07/17 09:29:01;;;;;;;2.90;0.90;;;;;;;;;;5098081;28;20115;-80
2022/07/17 09:31:28;;;;;;;4.55;1.10;;;;;;;;;;5097678;28;20032;-79
2022/07/17 09:33:54;;;;;;;3.75;1.20;;;;;;;;;;5097779;28;20044;-79
2022/07/17 09:36:20;;;;;;;4.47;1.20;;;;;;;;;;5098116;28;20039;-80
2022/07/17 09:38:48;;;;;;;4.50;1.17;;;;;;;;;;5080206;28;20130;-80
2022/07/17 09:41:19;;;;;;;4.32;1.00;;;;;;;;;;5097718;28;20403;-79
2022/07/17 09:43:50;;;;;;;4.38;1.00;;;;;;;;;;5097578;28;20551;-80
2022/07/17 09:46:21;;;;;;;4.40;1.25;;;;;;;;;;5097870;28;20040;-80
2022/07/17 09:48:49;;;;;;;3.63;1.10;;;;;;;;;;5097256;28;20046;-81
2022/07/17 09:51:20;;;;;;;3.58;1.17;;;;;;;;;;5097524;28;20507;-80
2022/07/17 09:53:47;;;;;;;3.58;1.02;;;;;;;;;;5097215;28;20047;-80
2022/07/17 09:56:16;;;;;;;2.47;1.00;;;;;;;;;;5080526;28;20119;-79
2022/07/17 09:58:43;;;;;;;3.33;1.30;;;;;;;;;;5096987;28;20047;-80
2022/07/17 10:01:10;;;;;;;5.55;1.00;;;;;;;;;;5080251;28;20058;-79
2022/07/17 10:03:36;;;;;;;2.78;1.15;;;;;;;;;;5079892;28;20089;-79
2022/07/17 10:06:02;;;;;;;4.28;1.10;;;;;;;;;;5097494;28;20120;-81
2022/07/17 10:08:29;;;;;;;3.97;1.15;;;;;;;;;;5080245;28;20404;-79
2022/07/17 10:10:55;;;;;;;4.45;1.10;;;;;;;;;;5096866;28;20038;-80
2022/07/17 10:13:22;;;;;;;3.17;1.10;;;;;;;;;;5097203;28;20468;-80
2022/07/17 10:15:49;;;;;;;3.63;1.00;;;;;;;;;;5079988;28;20453;-80
2022/07/17 10:18:15;;;;;;;2.72;0.85;;;;;;;;;;5096942;28;20042;-80
2022/07/17 10:20:41;;;;;;;3.53;1.00;;;;;;;;;;5097195;28;20500;-81
2022/07/17 10:23:14;;;;;;;2.70;1.10;;;;;;;;;;5096815;28;20101;-83
2022/07/17 10:25:40;;;;;;;3.47;1.30;;;;;;;;;;5080177;28;20438;-81
2022/07/17 10:28:07;;;;;;;2.88;1.10;;;;;;;;;;5096617;28;20096;-80
2022/07/17 10:30:33;;;;;;;2.80;1.05;;;;;;;;;;5096281;28;20046;-80
2022/07/17 10:33:06;;;;;;;3.40;1.38;;;;;;;;;;5076189;28;20067;-80
2022/07/17 10:35:42;;;;;;;4.47;1.30;;;;;;;;;;5092860;28;20048;-80
2022/07/17 10:38:12;;;;;;;3.22;1.10;;;;;;;;;;5084043;28;20092;-79
2022/07/17 10:40:39;;;;;;;3.72;1.25;;;;;;;;;;5063409;28;20077;-83
2022/07/17 10:43:06;;;;;;;5.47;1.42;;;;;;;;;;5085470;28;20050;-79
2022/07/17 10:45:38;;;;;;;3.40;1.08;;;;;;;;;;5090060;28;20482;-79
2022/07/17 10:48:05;;;;;;;3.50;1.10;;;;;;;;;;5086288;28;20132;-79
2022/07/17 10:50:42;;;;;;;3.63;1.08;;;;;;;;;;5088934;28;20617;-80
2022/07/17 10:53:21;;;;;;;2.30;1.00;;;;;;;;;;5086497;28;20043;-79
2022/07/17 10:55:49;;;;;;;3.63;1.08;;;;;;;;;;5090119;28;20043;-81
2022/07/17 10:58:18;;;;;;;5.30;1.17;;;;;;;;;;5078639;28;20392;-79
2022/07/17 11:00:44;;;;;;;4.95;1.10;;;;;;;;;;5083592;28;20050;-79
2022/07/17 11:03:13;;;;;;;3.75;1.20;;;;;;;;;;5091126;28;20044;-81
2022/07/17 11:05:40;;;;;;;3.60;1.20;;;;;;;;;;5075498;28;20087;-80
2022/07/17 11:08:09;;;;;;;4.40;0.98;;;;;;;;;;5089555;28;20094;-82
2022/07/17 11:10:35;;;;;;;4.50;1.10;;;;;;;;;;5075789;28;20527;-80
2022/07/17 11:13:12;;;;;;;3.75;1.20;;;;;;;;;;5087794;28;20047;-80
2022/07/17 11:15:39;;;;;;;5.05;1.20;;;;;;;;;;5086794;28;20043;-78
2022/07/17 11:18:10;;;;;;;3.42;1.10;;;;;;;;;;5075570;28;20485;-76
2022/07/17 11:20:46;;;;;;;4.15;1.15;;;;;;;;;;5088024;28;20477;-78
2022/07/17 11:23:12;;;;;;;3.55;1.17;;;;;;;;;;5087859;28;20050;-79
2022/07/17 11:25:39;;;;;;;3.63;1.30;;;;;;;;;;5088904;28;20068;-78
2022/07/17 11:28:05;;;;;;;3.33;1.20;;;;;;;;;;5085625;28;20036;-78
2022/07/17 11:30:31;;;;;;;3.47;1.30;;;;;;;;;;5075686;28;20496;-77
2022/07/17 11:32:58;;;;;;;5.10;1.38;;;;;;;;;;5085403;28;20135;-78
2022/07/17 11:35:25;;;;;;;4.22;1.30;;;;;;;;;;5072145;28;20127;-77
2022/07/17 11:37:51;;;;;;;3.63;1.40;;;;;;;;;;5064585;28;20120;-78
2022/07/17 11:40:17;;;;;;;3.50;1.52;;;;;;;;;;5092172;28;20545;-77
2022/07/17 11:42:44;;;;;;;2.42;1.10;;;;;;;;;;5091889;28;20043;-78
2022/07/17 11:45:11;;;;;;;4.50;1.23;;;;;;;;;;5091927;28;20048;-77
2022/07/17 11:47:37;;;;;;;3.75;1.52;;;;;;;;;;5091667;28;20512;-77
2022/07/17 11:50:13;;;;;;;3.40;1.20;;;;;;;;;;5094391;28;20506;-80
2022/07/17 11:52:41;;;;;;;4.45;1.50;;;;;;;;;;5074750;28;20036;-81
2022/07/17 11:55:07;;;;;;;5.25;1.23;;;;;;;;;;5091744;28;20114;-81
2022/07/17 11:57:41;;;;;;;3.17;1.20;;;;;;;;;;5091643;28;20051;-78
2022/07/17 12:00:08;;;;;;;3.90;1.48;;;;;;;;;;5092080;28;20067;-78
2022/07/17 12:02:34;;;;;;;3.78;1.60;;;;;;;;;;5092300;28;20397;-79
2022/07/17 12:05:01;;;;;;;3.65;1.40;;;;;;;;;;5091338;28;20040;-79
2022/07/17 12:07:39;;;;;;;4.45;1.25;;;;;;;;;;5091526;28;20462;-81
2022/07/17 12:10:14;;;;;;;5.90;1.38;;;;;;;;;;5091619;28;20031;-79
2022/07/17 12:12:40;;;;;;;3.83;1.67;;;;;;;;;;5091406;28;20051;-78
2022/07/17 12:15:07;;;;;;;3.45;1.50;;;;;;;;;;5091693;28;20532;-79
2022/07/17 12:17:40;;;;;;;4.63;1.42;;;;;;;;;;5058171;28;20078;-79
2022/07/17 12:20:07;;;;;;;3.78;1.40;;;;;;;;;;5092011;28;20070;-79
2022/07/17 12:22:43;;;;;;;2.83;1.27;;;;;;;;;;5091423;28;20046;-79
2022/07/17 12:25:10;;;;;;;3.15;1.50;;;;;;;;;;5092453;28;20040;-80
2022/07/17 12:27:36;;;;;;;4.68;1.40;;;;;;;;;;5074621;28;20135;-80
2022/07/17 12:30:02;;;;;;;2.95;1.30;;;;;;;;;;5090954;28;20492;-80
2022/07/17 12:32:28;;;;;;;2.63;1.30;;;;;;;;;;5092820;28;20048;-77
2022/07/17 12:34:54;;;;;;;3.38;1.70;;;;;;;;;;5094274;28;20071;-78
2022/07/17 12:37:22;;;;;;;4.20;1.30;;;;;;;;;;5078396;28;20074;-76
2022/07/17 12:39:49;;;;;;;3.78;1.23;;;;;;;;;;5098452;28;20039;-79
2022/07/17 12:42:15;;;;;;;4.63;1.55;;;;;;;;;;5098669;28;20035;-77
2022/07/17 12:44:42;;;;;;;3.00;1.30;;;;;;;;;;5098913;28;20048;-77
2022/07/17 12:47:08;;;;;;;8.43;1.83;;;;;;;;;;5081637;28;20127;-80
2022/07/17 12:49:34;;;;;;;3.17;1.70;;;;;;;;;;5099002;28;20044;-76
2022/07/17 12:52:00;;;;;;;3.28;1.52;;;;;;;;;;5116927;28;20496;-77
2022/07/17 12:54:26;;;;;;;3.47;1.58;;;;;;;;;;5098908;28;20092;-78
2022/07/17 12:56:53;;;;;;;3.35;1.50;;;;;;;;;;5081574;28;20054;-79
2022/07/17 12:59:19;;;;;;;4.65;1.80;;;;;;;;;;5098503;28;20043;-76
2022/07/17 13:01:45;;;;;;;4.15;1.95;;;;;;;;;;5098394;28;20047;-77
2022/07/17 13:04:12;;;;;;;4.47;1.92;;;;;;;;;;5064893;28;20050;-80
2022/07/17 13:06:38;;;;;;;4.40;2.03;;;;;;;;;;5098361;28;20492;-77
2022/07/17 13:09:04;;;;;;;4.90;2.40;;;;;;;;;;5116037;28;20039;-80
2022/07/17 13:11:30;;;;;;;4.72;2.55;;;;;;;;;;5098253;28;20079;-77
2022/07/17 13:13:56;;;;;;;4.32;2.50;;;;;;;;;;5098194;28;20047;-77
2022/07/17 13:16:22;;;;;;;4.65;2.50;;;;;;;;;;5098005;28;20088;-76
2022/07/17 13:18:48;;;;;;;6.07;2.55;;;;;;;;;;5097871;28;20043;-78
2022/07/17 13:21:14;;;;;;;4.00;2.60;;;;;;;;;;5098368;28;20504;-77
2022/07/17 13:23:40;;;;;;;4.75;2.45;;;;;;;;;;5098057;28;20040;-78
2022/07/17 13:26:06;;;;;;;6.60;2.20;;;;;;;;;;5080861;28;20118;-77
2022/07/17 13:28:33;;;;;;;4.70;2.40;;;;;;;;;;5098039;28;20074;-79
2022/07/17 13:30:59;;;;;;;4.80;2.40;;;;;;;;;;5097652;28;20064;-77
2022/07/17 13:33:25;;;;;;;5.18;2.70;;;;;;;;;;5097608;28;20138;-77
2022/07/17 13:35:53;;;;;;;4.60;2.50;;;;;;;;;;5097437;28;20111;-80
2022/07/17 13:38:20;;;;;;;3.60;2.30;;;;;;;;;;5098165;28;20442;-79
2022/07/17 13:40:46;;;;;;;5.47;2.40;;;;;;;;;;5097502;28;20035;-80
2022/07/17 13:43:12;;;;;;;4.97;2.22;;;;;;;;;;5080722;28;20047;-76
2022/07/17 13:45:38;;;;;;;4.32;2.05;;;;;;;;;;5097489;28;20036;-80
2022/07/17 13:48:04;;;;;;;4.65;2.60;;;;;;;;;;5079835;28;20043;-80
2022/07/17 13:50:31;;;;;;;5.47;2.55;;;;;;;;;;5097521;28;20039;-77
2022/07/17 13:52:57;;;;;;;5.28;2.38;;;;;;;;;;5097321;28;20065;-80
2022/07/17 13:55:23;;;;;;;6.00;2.80;;;;;;;;;;5115795;28;20035;-79
2022/07/17 13:57:49;;;;;;;7.53;2.40;;;;;;;;;;5080530;28;20108;-78
2022/07/17 14:00:17;;;;;;;4.38;2.50;;;;;;;;;;5096991;28;20044;-81
2022/07/17 14:02:43;;;;;;;5.38;2.50;;;;;;;;;;5097176;28;20054;-77
2022/07/17 14:05:10;;;;;;;4.82;2.80;;;;;;;;;;5080403;28;20399;-77
2022/07/17 14:07:36;;;;;;;4.18;2.65;;;;;;;;;;5097264;28;20048;-78
2022/07/17 14:10:02;;;;;;;4.57;2.63;;;;;;;;;;5079878;28;20122;-79
2022/07/17 14:12:28;;;;;;;5.97;2.70;;;;;;;;;;5080499;28;20059;-78
2022/07/17 14:14:55;;;;;;;4.00;2.47;;;;;;;;;;5096785;28;20031;-79
2022/07/17 14:17:21;;;;;;;4.18;2.78;;;;;;;;;;5097059;28;20556;-79
2022/07/17 14:19:47;;;;;;;4.55;2.72;;;;;;;;;;5097123;28;20403;-79
2022/07/17 14:22:13;;;;;;;4.60;2.90;;;;;;;;;;5079731;28;20358;-78
2022/07/17 14:24:39;;;;;;;5.45;2.60;;;;;;;;;;5096816;28;20051;-78
2022/07/17 14:27:05;;;;;;;5.05;3.00;;;;;;;;;;5096432;28;20074;-78
2022/07/17 14:29:32;;;;;;;6.20;2.83;;;;;;;;;;5096980;28;20035;-79
2022/07/17 14:31:58;;;;;;;6.18;2.65;;;;;;;;;;5096375;28;20035;-79
2022/07/17 14:34:24;;;;;;;5.03;2.72;;;;;;;;;;5096804;28;20492;-78
2022/07/17 14:36:50;;;;;;;6.68;2.70;;;;;;;;;;5079808;28;20059;-78
2022/07/17 14:39:16;;;;;;;5.50;3.22;;;;;;;;;;5096512;28;20078;-78